createdAt,value
2022-12-17T00:03:59.688Z,974.57
2022-12-17T00:08:59.518Z,974.66
2022-12-17T00:13:59.449Z,974.75
2022-12-17T00:18:59.388Z,974.79
2022-12-17T00:23:59.328Z,974.83
2022-12-17T00:28:59.278Z,974.91
2022-12-17T00:33:59.217Z,974.91
2022-12-17T00:38:59.166Z,975.02
2022-12-17T00:43:59.086Z,975.13
2022-12-17T00:48:59.041Z,975.19
2022-12-17T00:53:58.977Z,975.22
2022-12-17T00:58:58.917Z,975.27
2022-12-17T01:03:58.856Z,975.39
2022-12-17T01:08:58.799Z,975.44
2022-12-17T01:13:58.797Z,975.52
2022-12-17T01:18:58.705Z,975.66
2022-12-17T01:23:58.621Z,975.77
2022-12-17T01:28:58.567Z,975.80
2022-12-17T01:33:58.495Z,975.86
2022-12-17T01:38:58.455Z,975.86
2022-12-17T01:43:58.387Z,975.94
2022-12-17T01:48:58.314Z,976.00
2022-12-17T01:53:58.256Z,976.08
2022-12-17T01:58:58.202Z,976.12
2022-12-17T02:03:58.134Z,976.17
2022-12-17T02:08:58.082Z,976.18
2022-12-17T02:13:58.013Z,976.26
2022-12-17T02:18:57.978Z,976.29
2022-12-17T02:23:57.894Z,976.31
2022-12-17T02:28:57.843Z,976.35
2022-12-17T02:33:57.792Z,976.40
2022-12-17T02:38:57.731Z,976.38
2022-12-17T02:43:57.652Z,976.42
2022-12-17T02:48:57.614Z,976.45
2022-12-17T02:53:57.533Z,976.50
2022-12-17T02:58:57.472Z,976.60
2022-12-17T03:03:57.412Z,976.64
2022-12-17T03:08:57.360Z,976.78
2022-12-17T03:13:57.291Z,976.86
2022-12-17T03:18:57.240Z,976.89
2022-12-17T03:23:57.172Z,976.89
2022-12-17T03:28:57.120Z,976.92
2022-12-17T03:33:57.050Z,976.95
2022-12-17T03:38:56.999Z,976.95
2022-12-17T03:43:56.930Z,976.95
2022-12-17T03:48:56.869Z,976.91
2022-12-17T03:53:56.814Z,976.99
2022-12-17T03:58:56.750Z,977.05
2022-12-17T04:03:56.693Z,977.15
2022-12-17T04:08:56.651Z,977.26
2022-12-17T04:13:56.558Z,977.33
2022-12-17T04:18:56.520Z,977.46
2022-12-17T04:23:56.468Z,977.56
2022-12-17T04:28:56.404Z,977.65
2022-12-17T04:33:56.328Z,977.77
2022-12-17T04:38:56.278Z,977.76
2022-12-17T04:44:01.249Z,977.76
2022-12-17T04:48:57.158Z,977.79
2022-12-17T04:53:56.087Z,977.84
2022-12-17T04:58:56.045Z,977.93
2022-12-17T05:03:56.052Z,977.99
2022-12-17T05:08:55.907Z,978.10
2022-12-17T05:13:55.857Z,978.16
2022-12-17T05:18:55.786Z,978.22
2022-12-17T05:23:55.725Z,978.29
2022-12-17T05:28:55.674Z,978.32
2022-12-17T05:33:55.604Z,978.40
2022-12-17T05:38:55.553Z,978.52
2022-12-17T05:43:55.484Z,978.57
2022-12-17T05:48:55.459Z,978.66
2022-12-17T05:53:55.365Z,978.70
2022-12-17T05:58:55.324Z,978.81
2022-12-17T06:03:55.310Z,978.81
2022-12-17T06:08:55.184Z,978.84
2022-12-17T06:13:55.148Z,978.90
2022-12-17T06:18:55.072Z,978.90
2022-12-17T06:23:55.003Z,979.03
2022-12-17T06:28:54.950Z,979.10
2022-12-17T06:33:54.881Z,979.20
2022-12-17T06:38:54.832Z,979.23
2022-12-17T06:43:54.763Z,979.26
2022-12-17T06:48:54.711Z,979.39
2022-12-17T06:53:54.641Z,979.45
2022-12-17T06:58:54.602Z,979.55
2022-12-17T07:03:54.522Z,979.73
2022-12-17T07:08:54.478Z,979.74
2022-12-17T07:13:54.421Z,979.81
2022-12-17T07:18:54.353Z,979.84
2022-12-17T07:23:54.279Z,979.90
2022-12-17T07:28:54.230Z,979.89
2022-12-17T07:33:54.179Z,979.99
2022-12-17T07:38:54.130Z,980.09
2022-12-17T07:43:54.039Z,980.11
2022-12-17T07:48:53.989Z,980.25
2022-12-17T07:53:53.926Z,980.31
2022-12-17T07:58:53.868Z,980.46
2022-12-17T08:03:53.820Z,980.41
2022-12-17T08:08:53.758Z,980.51
2022-12-17T08:13:53.687Z,980.56
2022-12-17T08:18:53.638Z,980.68
2022-12-17T08:23:53.589Z,980.72
2022-12-17T08:28:53.523Z,980.80
2022-12-17T08:33:53.459Z,980.86
2022-12-17T08:38:53.387Z,980.89
2022-12-17T08:43:53.327Z,981.01
2022-12-17T08:48:53.269Z,981.10
2022-12-17T08:53:53.206Z,981.05
2022-12-17T08:58:58.704Z,981.08
2022-12-17T09:03:54.077Z,981.11
2022-12-17T09:08:53.061Z,981.13
2022-12-17T09:13:52.966Z,981.15
2022-12-17T09:18:52.915Z,981.15
2022-12-17T09:23:52.865Z,981.22
2022-12-17T09:28:52.785Z,981.22
2022-12-17T09:33:52.724Z,981.28
2022-12-17T09:38:52.674Z,981.30
2022-12-17T09:43:52.604Z,981.36
2022-12-17T09:48:52.545Z,981.43
2022-12-17T09:53:52.493Z,981.56
2022-12-17T09:58:52.414Z,981.63
2022-12-17T10:03:52.441Z,981.64
2022-12-17T10:08:52.309Z,981.63
2022-12-17T10:13:52.243Z,981.59
2022-12-17T10:18:52.191Z,981.62
2022-12-17T10:23:52.124Z,981.67
2022-12-17T10:28:52.094Z,981.66
2022-12-17T10:33:52.002Z,981.71
2022-12-17T10:38:51.947Z,981.77
2022-12-17T10:43:51.883Z,981.79
2022-12-17T10:48:51.862Z,981.81
2022-12-17T10:53:51.787Z,981.85
2022-12-17T10:58:51.712Z,981.93
2022-12-17T11:03:51.670Z,981.95
2022-12-17T11:08:51.614Z,982.01
2022-12-17T11:13:51.531Z,982.03
2022-12-17T11:18:51.479Z,982.07
2022-12-17T11:23:51.401Z,982.11
2022-12-17T11:28:51.357Z,982.13
2022-12-17T11:33:51.292Z,982.16
2022-12-17T11:38:51.241Z,982.21
2022-12-17T11:43:51.180Z,982.26
2022-12-17T11:48:51.130Z,982.26
2022-12-17T11:53:51.058Z,982.35
2022-12-17T11:58:51.000Z,982.33
2022-12-17T12:03:51.019Z,982.24
2022-12-17T12:08:50.878Z,982.25
2022-12-17T12:13:50.812Z,982.27
2022-12-17T12:18:50.760Z,982.26
2022-12-17T12:23:50.689Z,982.30
2022-12-17T12:28:50.639Z,982.29
2022-12-17T12:33:50.574Z,982.38
2022-12-17T12:38:50.509Z,982.34
2022-12-17T12:43:50.452Z,982.33
2022-12-17T12:48:50.387Z,982.41
2022-12-17T12:53:50.331Z,982.47
2022-12-17T12:58:50.268Z,982.48
2022-12-17T13:03:50.245Z,982.44
2022-12-17T13:08:50.148Z,982.43
2022-12-17T13:13:50.086Z,982.48
2022-12-17T13:18:50.027Z,982.53
2022-12-17T13:23:49.967Z,982.54
2022-12-17T13:28:49.985Z,982.61
2022-12-17T13:33:49.847Z,982.62
2022-12-17T13:38:49.786Z,982.66
2022-12-17T13:43:49.718Z,982.68
2022-12-17T13:48:49.667Z,982.76
2022-12-17T13:53:49.607Z,982.85
2022-12-17T13:58:51.222Z,982.94
2022-12-17T14:04:05.966Z,982.99
2022-12-17T14:08:50.427Z,983.06
2022-12-17T14:13:49.365Z,983.17
2022-12-17T14:18:49.319Z,983.23
2022-12-17T14:23:49.237Z,983.27
2022-12-17T14:28:50.608Z,983.39
2022-12-17T14:33:49.116Z,983.38
2022-12-17T14:38:49.096Z,983.51
2022-12-17T14:43:49.006Z,983.48
2022-12-17T14:48:48.934Z,983.59
2022-12-17T14:53:48.876Z,983.58
2022-12-17T14:58:48.815Z,983.61
2022-12-17T15:03:48.768Z,983.66
2022-12-17T15:08:48.705Z,983.68
2022-12-17T15:13:52.947Z,983.76
2022-12-17T15:18:49.580Z,983.84
2022-12-17T15:23:48.517Z,983.92
2022-12-17T15:28:48.463Z,983.94
2022-12-17T15:33:48.405Z,983.97
2022-12-17T15:38:48.376Z,983.99
2022-12-17T15:43:48.274Z,984.04
2022-12-17T15:48:50.385Z,984.15
2022-12-17T15:53:48.164Z,984.24
2022-12-17T15:58:48.103Z,984.21
2022-12-17T16:03:48.090Z,984.25
2022-12-17T16:08:47.981Z,984.29
2022-12-17T16:13:47.910Z,984.31
2022-12-17T16:18:47.873Z,984.33
2022-12-17T16:23:47.807Z,984.36
2022-12-17T16:28:47.751Z,984.42
2022-12-17T16:33:47.689Z,984.37
2022-12-17T16:38:47.632Z,984.40
2022-12-17T16:43:47.571Z,984.42
2022-12-17T16:48:47.521Z,984.42
2022-12-17T16:53:47.450Z,984.39
2022-12-17T16:58:47.398Z,984.50
2022-12-17T17:03:47.384Z,984.48
2022-12-17T17:08:47.290Z,984.52
2022-12-17T17:13:47.217Z,984.61
2022-12-17T17:18:47.159Z,984.68
2022-12-17T17:23:47.109Z,984.64
2022-12-17T17:28:47.055Z,984.73
2022-12-17T17:33:46.987Z,984.74
2022-12-17T17:38:46.927Z,984.81
2022-12-17T17:43:46.882Z,984.83
2022-12-17T17:48:46.832Z,984.86
2022-12-17T17:53:46.767Z,984.96
2022-12-17T17:58:46.698Z,985.07
2022-12-17T18:03:46.682Z,985.10
2022-12-17T18:08:46.591Z,985.16
2022-12-17T18:13:46.525Z,985.25
2022-12-17T18:18:46.472Z,985.18
2022-12-17T18:23:46.416Z,985.25
2022-12-17T18:28:46.362Z,985.30
2022-12-17T18:33:46.310Z,985.43
2022-12-17T18:38:46.242Z,985.41
2022-12-17T18:43:46.191Z,985.44
2022-12-17T18:48:46.141Z,985.49
2022-12-17T18:53:46.085Z,985.48
2022-12-17T18:58:46.018Z,985.58
2022-12-17T19:03:45.958Z,985.66
2022-12-17T19:08:45.899Z,985.73
2022-12-17T19:13:45.849Z,985.88
2022-12-17T19:18:45.792Z,985.97
2022-12-17T19:23:45.732Z,986.04
2022-12-17T19:28:45.674Z,986.15
2022-12-17T19:33:45.619Z,986.19
2022-12-17T19:38:45.547Z,986.24
2022-12-17T19:43:45.497Z,986.26
2022-12-17T19:48:48.706Z,986.28
2022-12-17T19:53:45.388Z,986.31
2022-12-17T19:58:45.330Z,986.34
2022-12-17T20:03:45.285Z,986.36
2022-12-17T20:08:45.226Z,986.45
2022-12-17T20:13:48.712Z,986.47
2022-12-17T20:18:46.114Z,986.47
2022-12-17T20:23:45.054Z,986.44
2022-12-17T20:28:44.993Z,986.41
2022-12-17T20:33:44.939Z,986.51
2022-12-17T20:38:44.934Z,986.62
2022-12-17T20:43:44.831Z,986.66
2022-12-17T20:48:44.771Z,986.55
2022-12-17T20:53:44.733Z,986.58
2022-12-17T20:58:44.660Z,986.55
2022-12-17T21:03:44.675Z,986.51
2022-12-17T21:08:49.469Z,986.57
2022-12-17T21:13:45.488Z,986.63
2022-12-17T21:18:44.430Z,986.74
2022-12-17T21:23:44.369Z,986.71
2022-12-17T21:28:44.309Z,986.80
2022-12-17T21:33:44.276Z,986.75
2022-12-17T21:38:44.201Z,986.75
2022-12-17T21:43:44.151Z,986.73
2022-12-17T21:48:44.569Z,986.82
2022-12-17T21:53:44.016Z,986.82
2022-12-17T21:58:43.966Z,986.79
2022-12-17T22:03:43.917Z,986.80
2022-12-17T22:08:43.848Z,986.81
2022-12-17T22:13:43.795Z,986.83
2022-12-17T22:18:43.725Z,986.87
2022-12-17T22:23:43.674Z,986.86
2022-12-17T22:28:43.614Z,986.91
2022-12-17T22:34:00.928Z,986.95
2022-12-17T22:41:58.925Z,987.01
2022-12-17T22:44:41.943Z,987.09
2022-12-17T22:48:44.379Z,987.07
2022-12-17T22:53:43.573Z,987.11
2022-12-17T22:58:43.271Z,987.15
2022-12-17T23:03:44.240Z,987.23
2022-12-17T23:08:43.151Z,987.29
2022-12-17T23:13:43.100Z,987.34
2022-12-17T23:18:43.031Z,987.27
2022-12-17T23:23:43.127Z,987.25
2022-12-17T23:28:42.932Z,987.28
2022-12-17T23:33:43.013Z,987.20
2022-12-17T23:38:42.870Z,987.15
2022-12-17T23:43:42.778Z,987.29
2022-12-17T23:48:45.608Z,987.30
2022-12-17T23:53:43.082Z,987.22
2022-12-17T23:58:42.567Z,987.32
